createdAt,value
2019-03-25T00:00:10.746Z,84.80
2019-03-25T00:02:39.756Z,84.40
2019-03-25T00:05:08.861Z,85.60
2019-03-25T00:07:38.236Z,85.60
2019-03-25T00:10:07.435Z,85.80
2019-03-25T00:12:36.483Z,87.30
2019-03-25T00:15:08.728Z,88.70
2019-03-25T00:17:37.975Z,89.70
2019-03-25T00:20:07.827Z,89.30
2019-03-25T00:22:37.015Z,89.00
2019-03-25T00:25:06.811Z,89.20
2019-03-25T00:27:35.860Z,88.70
2019-03-25T00:30:06.054Z,88.70
2019-03-25T00:32:35.031Z,89.60
2019-03-25T00:35:05.112Z,90.00
2019-03-25T00:37:34.072Z,90.00
2019-03-25T00:40:03.256Z,90.10
2019-03-25T00:42:32.599Z,90.80
2019-03-25T00:45:01.643Z,90.60
2019-03-25T00:47:30.626Z,90.90
2019-03-25T00:49:59.826Z,91.00
2019-03-25T00:52:28.811Z,91.40
2019-03-25T00:54:57.761Z,91.50
2019-03-25T00:57:26.809Z,91.50
2019-03-25T00:59:55.932Z,91.40
2019-03-25T01:02:24.995Z,91.10
2019-03-25T01:04:54.247Z,91.10
2019-03-25T01:07:23.319Z,91.20
2019-03-25T01:09:52.393Z,91.00
2019-03-25T01:12:21.791Z,90.80
2019-03-25T01:14:50.857Z,90.70
2019-03-25T01:17:19.844Z,90.80
2019-03-25T01:19:48.870Z,90.90
2019-03-25T01:22:18.119Z,90.70
2019-03-25T01:24:47.252Z,90.50
2019-03-25T01:27:16.226Z,90.40
2019-03-25T01:29:45.574Z,90.30
2019-03-25T01:32:14.559Z,90.30
2019-03-25T01:34:43.537Z,90.20
2019-03-25T01:37:12.483Z,90.10
2019-03-25T01:39:41.540Z,90.10
2019-03-25T01:42:11.588Z,90.20
2019-03-25T01:44:40.668Z,90.20
2019-03-25T01:47:10.042Z,90.30
2019-03-25T01:49:39.020Z,90.30
2019-03-25T01:52:08.028Z,90.30
2019-03-25T01:54:36.999Z,90.60
2019-03-25T01:57:06.124Z,91.00
2019-03-25T01:59:35.092Z,90.80
2019-03-25T02:02:04.330Z,91.20
2019-03-25T02:04:33.503Z,90.90
2019-03-25T02:07:02.520Z,91.00
2019-03-25T02:09:31.584Z,91.10
2019-03-25T02:12:00.602Z,91.00
2019-03-25T02:14:29.818Z,91.00
2019-03-25T02:16:58.945Z,91.00
2019-03-25T02:19:27.958Z,91.00
2019-03-25T02:21:56.936Z,91.00
2019-03-25T02:24:25.978Z,91.20
2019-03-25T02:26:54.976Z,91.50
2019-03-25T02:29:24.121Z,91.40
2019-03-25T02:31:53.079Z,91.60
2019-03-25T02:34:22.359Z,91.70
2019-03-25T02:36:51.649Z,91.80
2019-03-25T02:39:20.629Z,91.90
2019-03-25T02:41:49.952Z,91.70
2019-03-25T02:44:18.974Z,91.50
2019-03-25T02:46:47.953Z,91.70
2019-03-25T02:49:16.975Z,91.70
2019-03-25T02:51:46.215Z,92.00
2019-03-25T02:54:15.344Z,92.30
2019-03-25T02:56:44.418Z,92.40
2019-03-25T02:59:13.450Z,92.40
2019-03-25T03:01:42.443Z,92.50
2019-03-25T03:04:11.398Z,92.30
2019-03-25T03:06:40.533Z,92.10
2019-03-25T03:09:10.358Z,92.20
2019-03-25T03:11:39.620Z,92.40
2019-03-25T03:14:08.637Z,92.20
2019-03-25T03:16:37.696Z,92.40
2019-03-25T03:19:06.732Z,92.30
2019-03-25T03:21:35.715Z,92.20
2019-03-25T03:24:04.724Z,92.40
2019-03-25T03:26:33.915Z,92.40
2019-03-25T03:29:03.111Z,92.40
2019-03-25T03:31:32.092Z,92.50
2019-03-25T03:34:01.101Z,92.60
2019-03-25T03:36:30.104Z,92.50
2019-03-25T03:38:59.114Z,92.70
2019-03-25T03:41:28.722Z,92.70
2019-03-25T03:44:00.574Z,92.40
2019-03-25T03:46:28.603Z,92.60
2019-03-25T03:48:57.562Z,92.90
2019-03-25T03:51:26.654Z,92.30
2019-03-25T03:53:55.866Z,92.80
2019-03-25T03:56:25.281Z,92.60
2019-03-25T03:58:54.859Z,92.50
2019-03-25T04:01:24.051Z,92.40
2019-03-25T04:03:53.013Z,92.30
2019-03-25T04:06:21.963Z,92.30
2019-03-25T04:08:51.009Z,92.20
2019-03-25T04:11:20.242Z,92.30
2019-03-25T04:13:49.300Z,92.30
2019-03-25T04:16:18.294Z,92.70
2019-03-25T04:18:47.289Z,92.60
2019-03-25T04:21:16.304Z,92.80
2019-03-25T04:23:46.539Z,92.60
2019-03-25T04:26:27.773Z,92.60
2019-03-25T04:28:46.348Z,92.60
2019-03-25T04:31:15.321Z,92.60
2019-03-25T04:33:44.261Z,92.80
2019-03-25T04:36:13.380Z,92.70
2019-03-25T04:38:42.396Z,92.80
2019-03-25T04:41:11.623Z,92.70
2019-03-25T04:43:40.565Z,92.70
2019-03-25T04:46:09.536Z,92.80
2019-03-25T04:48:38.505Z,92.50
2019-03-25T04:51:07.834Z,92.80
2019-03-25T04:53:37.039Z,92.80
2019-03-25T04:56:06.291Z,92.80
2019-03-25T04:58:35.418Z,92.80
2019-03-25T05:01:04.581Z,92.80
2019-03-25T05:03:33.605Z,92.50
2019-03-25T05:06:02.654Z,92.50
2019-03-25T05:08:31.748Z,92.60
2019-03-25T05:11:00.816Z,92.50
2019-03-25T05:13:29.832Z,92.60
2019-03-25T05:15:58.803Z,92.80
2019-03-25T05:18:28.036Z,92.70
2019-03-25T05:20:57.091Z,92.60
2019-03-25T05:23:26.412Z,92.50
2019-03-25T05:25:55.582Z,92.40
2019-03-25T05:28:24.631Z,92.70
2019-03-25T05:30:53.755Z,92.60
2019-03-25T05:33:22.716Z,92.60
2019-03-25T05:35:51.755Z,92.60
2019-03-25T05:38:20.754Z,92.70
2019-03-25T05:40:49.901Z,92.90
2019-03-25T05:43:21.018Z,92.90
2019-03-25T05:45:49.883Z,92.90
2019-03-25T05:48:18.918Z,93.00
2019-03-25T05:50:48.038Z,92.80
2019-03-25T05:53:17.025Z,92.80
2019-03-25T05:55:46.238Z,92.60
2019-03-25T05:58:15.350Z,92.60
2019-03-25T06:00:44.385Z,92.60
2019-03-25T06:03:13.427Z,92.50
2019-03-25T06:05:42.606Z,92.40
2019-03-25T06:08:11.649Z,92.50
2019-03-25T06:10:40.600Z,92.40
2019-03-25T06:13:09.837Z,92.60
2019-03-25T06:15:38.848Z,92.50
2019-03-25T06:18:07.886Z,92.50
2019-03-25T06:20:36.828Z,92.40
2019-03-25T06:23:05.834Z,92.20
2019-03-25T06:25:34.907Z,92.20
2019-03-25T06:28:04.205Z,92.10
2019-03-25T06:30:33.187Z,92.10
2019-03-25T06:33:12.029Z,92.20
2019-03-25T06:35:33.058Z,91.90
2019-03-25T06:38:02.091Z,91.90
2019-03-25T06:40:31.087Z,91.60
2019-03-25T06:43:00.040Z,91.50
2019-03-25T06:45:29.171Z,91.30
2019-03-25T06:47:58.193Z,91.20
2019-03-25T06:50:27.173Z,90.90
2019-03-25T06:52:56.126Z,90.70
2019-03-25T06:55:25.183Z,90.70
2019-03-25T06:57:54.277Z,90.80
2019-03-25T07:00:23.392Z,90.90
2019-03-25T07:02:52.617Z,91.00
2019-03-25T07:05:21.597Z,90.90
2019-03-25T07:07:50.552Z,90.90
2019-03-25T07:10:33.835Z,90.90
2019-03-25T07:13:03.425Z,90.80
2019-03-25T07:15:32.813Z,90.80
2019-03-25T07:18:02.230Z,90.90
2019-03-25T07:20:31.397Z,91.00
2019-03-25T07:23:00.474Z,91.10
2019-03-25T07:25:29.569Z,91.80
2019-03-25T07:27:58.545Z,93.10
2019-03-25T07:30:27.670Z,92.20
2019-03-25T07:32:56.983Z,91.00
2019-03-25T07:35:26.081Z,88.30
2019-03-25T07:37:55.144Z,87.30
2019-03-25T07:40:24.350Z,87.00
2019-03-25T07:42:53.435Z,87.00
2019-03-25T07:45:22.548Z,86.80
2019-03-25T07:47:51.671Z,87.00
2019-03-25T07:50:20.619Z,86.70
2019-03-25T07:52:49.713Z,86.90
2019-03-25T07:55:18.813Z,86.80
2019-03-25T07:57:48.783Z,86.80
2019-03-25T08:00:18.588Z,87.00
2019-03-25T08:02:47.673Z,86.20
2019-03-25T08:05:16.775Z,85.70
2019-03-25T08:07:45.852Z,85.20
2019-03-25T08:10:17.889Z,84.80
2019-03-25T08:12:46.982Z,84.70
2019-03-25T08:15:16.019Z,84.80
2019-03-25T08:17:45.074Z,84.70
2019-03-25T08:20:15.392Z,84.60
2019-03-25T08:22:44.385Z,84.40
2019-03-25T08:25:13.873Z,83.80
2019-03-25T08:27:42.977Z,83.70
2019-03-25T08:30:12.670Z,83.90
2019-03-25T08:32:41.910Z,83.40
2019-03-25T08:35:11.232Z,80.40
2019-03-25T08:37:40.319Z,80.60
2019-03-25T08:40:11.140Z,80.70
2019-03-25T08:42:40.158Z,80.50
2019-03-25T08:45:09.577Z,79.30
2019-03-25T08:47:38.607Z,77.00
2019-03-25T08:50:08.700Z,72.70
2019-03-25T08:52:37.649Z,70.70
2019-03-25T08:55:08.238Z,72.10
2019-03-25T08:57:37.372Z,71.80
2019-03-25T09:00:08.923Z,61.40
2019-03-25T09:02:37.897Z,56.90
2019-03-25T09:05:08.519Z,52.30
2019-03-25T09:07:37.777Z,51.10
2019-03-25T09:10:10.087Z,50.90
2019-03-25T09:12:39.168Z,49.00
2019-03-25T09:15:11.677Z,50.60
2019-03-25T09:17:40.765Z,48.40
2019-03-25T09:20:10.545Z,48.60
2019-03-25T09:22:39.568Z,48.70
2019-03-25T09:25:08.965Z,47.90
2019-03-25T09:27:38.034Z,48.20
2019-03-25T09:30:09.624Z,48.10
2019-03-25T09:32:38.950Z,47.80
2019-03-25T09:35:09.573Z,47.60
2019-03-25T09:37:39.250Z,48.60
2019-03-25T09:40:09.512Z,48.00
2019-03-25T09:42:38.542Z,47.20
2019-03-25T09:45:08.623Z,47.20
2019-03-25T09:47:38.051Z,46.50
2019-03-25T09:50:07.824Z,46.30
2019-03-25T09:52:38.813Z,45.90
2019-03-25T09:55:09.247Z,46.50
2019-03-25T09:57:38.291Z,46.20
2019-03-25T10:00:11.622Z,45.90
2019-03-25T10:02:40.611Z,46.20
2019-03-25T10:05:10.056Z,46.20
2019-03-25T10:07:39.117Z,46.10
2019-03-25T10:10:08.705Z,46.20
2019-03-25T10:12:37.674Z,46.00
2019-03-25T10:15:08.829Z,46.30
2019-03-25T10:17:37.816Z,47.20
2019-03-25T10:20:07.975Z,47.10
2019-03-25T10:22:36.991Z,47.50
2019-03-25T10:25:07.794Z,47.10
2019-03-25T10:27:36.776Z,46.60
2019-03-25T10:30:11.840Z,46.80
2019-03-25T10:32:41.011Z,47.00
2019-03-25T10:35:12.153Z,47.40
2019-03-25T10:37:41.340Z,47.00
2019-03-25T10:40:11.208Z,46.10
2019-03-25T10:42:40.392Z,46.40
2019-03-25T10:45:10.445Z,47.30
2019-03-25T10:47:39.488Z,46.90
2019-03-25T10:50:09.268Z,46.70
2019-03-25T10:52:38.449Z,46.90
2019-03-25T10:55:08.142Z,47.00
2019-03-25T10:57:37.244Z,46.70
2019-03-25T11:00:10.404Z,46.40
2019-03-25T11:02:39.556Z,46.00
2019-03-25T11:05:10.482Z,46.50
2019-03-25T11:07:39.576Z,46.70
2019-03-25T11:10:09.704Z,45.60
2019-03-25T11:12:38.797Z,45.20
2019-03-25T11:15:09.063Z,45.30
2019-03-25T11:17:38.292Z,44.90
2019-03-25T11:20:08.963Z,45.20
2019-03-25T11:22:38.152Z,44.00
2019-03-25T11:25:07.965Z,43.60
2019-03-25T11:27:36.915Z,43.90
2019-03-25T11:30:08.876Z,43.60
2019-03-25T11:32:38.004Z,43.00
2019-03-25T11:35:09.434Z,43.10
2019-03-25T11:37:38.647Z,43.40
2019-03-25T11:40:09.426Z,43.70
2019-03-25T11:42:38.807Z,44.20
2019-03-25T11:45:09.977Z,43.20
2019-03-25T11:47:39.043Z,43.50
2019-03-25T11:50:08.958Z,44.10
2019-03-25T11:52:38.161Z,44.90
2019-03-25T11:55:08.027Z,45.30
2019-03-25T11:57:37.015Z,45.50
2019-03-25T12:00:08.263Z,44.20
2019-03-25T12:02:37.549Z,44.50
2019-03-25T12:05:07.313Z,45.00
2019-03-25T12:07:36.627Z,45.60
2019-03-25T12:10:09.236Z,44.90
2019-03-25T12:12:38.313Z,45.20
2019-03-25T12:15:08.671Z,44.80
2019-03-25T12:17:37.697Z,44.70
2019-03-25T12:20:08.002Z,44.70
2019-03-25T12:22:36.995Z,45.00
2019-03-25T12:25:07.744Z,45.20
2019-03-25T12:27:37.973Z,45.70
2019-03-25T12:30:09.468Z,45.10
2019-03-25T12:32:38.578Z,44.60
2019-03-25T12:35:08.168Z,45.30
2019-03-25T12:37:38.222Z,45.70
2019-03-25T12:40:08.044Z,45.40
2019-03-25T12:42:38.378Z,45.30
2019-03-25T12:45:07.952Z,45.20
2019-03-25T12:47:37.091Z,45.00
2019-03-25T12:50:09.708Z,45.10
2019-03-25T12:52:38.845Z,44.60
2019-03-25T12:55:08.508Z,43.50
2019-03-25T12:57:37.653Z,44.90
2019-03-25T13:00:07.572Z,45.10
2019-03-25T13:02:36.539Z,45.20
2019-03-25T13:05:07.072Z,45.90
2019-03-25T13:07:36.299Z,44.20
2019-03-25T13:10:06.498Z,44.20
2019-03-25T13:12:35.553Z,44.00
2019-03-25T13:15:06.733Z,44.30
2019-03-25T13:17:36.008Z,43.40
2019-03-25T13:20:06.793Z,43.20
2019-03-25T13:22:35.809Z,43.70
2019-03-25T13:25:05.883Z,43.80
2019-03-25T13:27:35.005Z,43.60
2019-03-25T13:30:08.225Z,43.20
2019-03-25T13:32:37.507Z,43.60
2019-03-25T13:35:10.993Z,43.10
2019-03-25T13:37:40.003Z,42.40
2019-03-25T13:40:09.591Z,43.10
2019-03-25T13:42:38.523Z,43.10
2019-03-25T13:45:08.198Z,43.30
2019-03-25T13:47:37.235Z,44.00
2019-03-25T13:50:07.159Z,43.40
2019-03-25T13:52:36.272Z,44.10
2019-03-25T13:55:06.759Z,44.40
2019-03-25T13:57:35.861Z,44.30
2019-03-25T14:00:06.873Z,44.00
2019-03-25T14:02:35.841Z,43.30
2019-03-25T14:05:06.834Z,43.80
2019-03-25T14:07:36.104Z,43.90
2019-03-25T14:10:09.343Z,43.50
2019-03-25T14:12:38.423Z,43.30
2019-03-25T14:15:09.353Z,43.10
2019-03-25T14:17:38.321Z,43.80
2019-03-25T14:20:11.556Z,44.90
2019-03-25T14:22:40.508Z,44.30
2019-03-25T14:25:10.075Z,44.80
2019-03-25T14:27:39.167Z,43.90
2019-03-25T14:30:14.319Z,43.70
2019-03-25T14:32:39.683Z,44.90
2019-03-25T14:35:08.982Z,47.50
2019-03-25T14:37:37.949Z,49.50
2019-03-25T14:40:07.848Z,50.70
2019-03-25T14:42:36.987Z,50.20
2019-03-25T14:45:07.493Z,49.80
2019-03-25T14:47:36.688Z,49.40
2019-03-25T14:50:09.248Z,49.70
2019-03-25T14:52:38.229Z,50.70
2019-03-25T14:55:07.542Z,50.10
2019-03-25T14:57:36.595Z,50.30
2019-03-25T15:00:08.553Z,50.10
2019-03-25T15:02:37.768Z,49.50
2019-03-25T15:05:07.849Z,50.40
2019-03-25T15:07:36.829Z,50.20
2019-03-25T15:10:06.763Z,50.60
2019-03-25T15:12:35.818Z,50.80
2019-03-25T15:15:06.870Z,51.40
2019-03-25T15:17:35.893Z,51.40
2019-03-25T15:20:10.044Z,51.40
2019-03-25T15:22:40.029Z,51.20
2019-03-25T15:25:09.402Z,52.30
2019-03-25T15:27:38.549Z,51.20
2019-03-25T15:30:09.647Z,51.70
2019-03-25T15:32:38.666Z,50.20
2019-03-25T15:35:08.079Z,50.10
2019-03-25T15:37:37.251Z,51.30
2019-03-25T15:40:11.558Z,51.40
2019-03-25T15:42:40.872Z,51.30
2019-03-25T15:45:10.440Z,50.90
2019-03-25T15:47:40.252Z,51.80
2019-03-25T15:50:11.345Z,52.00
2019-03-25T15:52:41.523Z,50.50
2019-03-25T15:55:12.246Z,48.50
2019-03-25T15:57:41.264Z,47.90
2019-03-25T16:00:18.770Z,47.50
2019-03-25T16:02:48.015Z,47.60
2019-03-25T16:05:17.429Z,47.60
2019-03-25T16:07:46.498Z,48.80
2019-03-25T16:10:17.125Z,49.60
2019-03-25T16:12:46.749Z,49.50
2019-03-25T16:15:18.905Z,49.80
2019-03-25T16:17:47.878Z,50.00
2019-03-25T16:20:16.963Z,50.10
2019-03-25T16:22:46.531Z,49.80
2019-03-25T16:25:24.467Z,49.60
2019-03-25T16:27:53.415Z,49.70
2019-03-25T16:30:22.711Z,50.20
2019-03-25T16:32:51.831Z,50.40
2019-03-25T16:35:21.020Z,51.30
2019-03-25T16:37:50.286Z,51.50
2019-03-25T16:40:19.339Z,52.40
2019-03-25T16:42:48.393Z,52.00
2019-03-25T16:45:17.442Z,51.80
2019-03-25T16:47:46.397Z,51.70
2019-03-25T16:50:15.459Z,52.30
2019-03-25T16:52:44.821Z,52.70
2019-03-25T16:55:14.082Z,52.60
2019-03-25T16:57:43.169Z,52.50
2019-03-25T17:00:12.426Z,52.90
2019-03-25T17:02:42.610Z,53.20
2019-03-25T17:05:11.721Z,53.30
2019-03-25T17:07:40.741Z,53.90
2019-03-25T17:10:10.236Z,54.60
2019-03-25T17:12:39.407Z,56.90
2019-03-25T17:15:09.639Z,65.70
2019-03-25T17:17:38.567Z,72.10
2019-03-25T17:20:07.650Z,77.10
2019-03-25T17:22:36.626Z,82.80
2019-03-25T17:25:06.769Z,86.60
2019-03-25T17:27:35.809Z,89.40
2019-03-25T17:30:07.926Z,90.00
2019-03-25T17:32:36.974Z,91.40
2019-03-25T17:35:06.892Z,91.80
2019-03-25T17:37:36.151Z,92.50
2019-03-25T17:40:08.070Z,92.70
2019-03-25T17:42:37.185Z,92.30
2019-03-25T17:45:07.851Z,92.50
2019-03-25T17:47:37.158Z,92.20
2019-03-25T17:50:07.962Z,92.60
2019-03-25T17:52:37.251Z,92.10
2019-03-25T17:55:08.022Z,92.90
2019-03-25T17:57:37.052Z,93.00
2019-03-25T18:00:09.057Z,92.00
2019-03-25T18:02:38.137Z,91.70
2019-03-25T18:05:09.526Z,91.50
2019-03-25T18:07:38.794Z,91.10
2019-03-25T18:10:08.618Z,91.10
2019-03-25T18:12:39.173Z,91.40
2019-03-25T18:15:10.893Z,90.80
2019-03-25T18:17:39.880Z,91.20
2019-03-25T18:20:18.206Z,91.10
2019-03-25T18:22:40.283Z,91.20
2019-03-25T18:25:09.588Z,91.60
2019-03-25T18:27:38.825Z,92.00
2019-03-25T18:30:09.117Z,92.00
2019-03-25T18:32:38.173Z,91.70
2019-03-25T18:35:07.178Z,91.90
2019-03-25T18:37:36.414Z,91.40
2019-03-25T18:40:05.760Z,91.40
2019-03-25T18:42:34.893Z,91.70
2019-03-25T18:45:05.549Z,91.80
2019-03-25T18:47:34.629Z,91.90
2019-03-25T18:50:04.781Z,92.00
2019-03-25T18:52:33.925Z,91.50
2019-03-25T18:55:03.102Z,91.10
2019-03-25T18:57:32.232Z,91.40
2019-03-25T19:00:01.283Z,92.00
2019-03-25T19:02:30.761Z,91.50
2019-03-25T19:05:00.156Z,91.60
2019-03-25T19:07:30.365Z,91.40
2019-03-25T19:10:00.311Z,91.00
2019-03-25T19:12:29.444Z,91.40
2019-03-25T19:14:58.484Z,91.20
2019-03-25T19:17:27.689Z,91.90
2019-03-25T19:19:56.897Z,91.20
2019-03-25T19:22:26.217Z,91.20
2019-03-25T19:24:55.413Z,91.20
2019-03-25T19:27:24.555Z,91.50
2019-03-25T19:29:53.870Z,91.00
2019-03-25T19:32:23.182Z,90.90
2019-03-25T19:34:52.226Z,91.10
2019-03-25T19:37:21.910Z,90.50
2019-03-25T19:39:50.897Z,90.80
2019-03-25T19:42:20.012Z,90.60
2019-03-25T19:44:49.143Z,90.50
2019-03-25T19:47:18.434Z,90.20
2019-03-25T19:49:47.644Z,90.10
2019-03-25T19:52:16.791Z,89.50
2019-03-25T19:54:45.947Z,90.00
2019-03-25T19:57:15.379Z,90.50
2019-03-25T19:59:44.570Z,90.20
2019-03-25T20:02:18.973Z,90.00
2019-03-25T20:04:44.611Z,90.30
2019-03-25T20:07:16.358Z,90.20
2019-03-25T20:09:45.984Z,90.00
2019-03-25T20:12:15.260Z,89.40
2019-03-25T20:14:44.983Z,90.70
2019-03-25T20:17:14.397Z,90.90
2019-03-25T20:19:43.545Z,91.10
2019-03-25T20:22:12.888Z,91.20
2019-03-25T20:24:42.077Z,90.00
2019-03-25T20:27:11.220Z,89.70
2019-03-25T20:29:40.679Z,90.30
2019-03-25T20:32:09.953Z,90.20
2019-03-25T20:34:39.400Z,89.90
2019-03-25T20:37:08.761Z,89.80
2019-03-25T20:39:38.050Z,89.10
2019-03-25T20:42:07.651Z,87.50
2019-03-25T20:44:37.221Z,87.80
2019-03-25T20:47:06.584Z,87.10
2019-03-25T20:49:37.190Z,86.60
2019-03-25T20:52:06.700Z,85.90
2019-03-25T20:54:35.914Z,86.50
2019-03-25T20:57:05.365Z,85.60
2019-03-25T20:59:34.653Z,85.20
2019-03-25T21:02:03.953Z,85.70
2019-03-25T21:04:33.191Z,85.60
2019-03-25T21:07:02.417Z,86.00
2019-03-25T21:09:31.596Z,86.10
2019-03-25T21:12:00.824Z,85.70
2019-03-25T21:14:30.117Z,85.60
2019-03-25T21:16:59.236Z,85.10
2019-03-25T21:19:28.657Z,85.10
2019-03-25T21:21:58.379Z,85.50
2019-03-25T21:24:27.585Z,85.20
2019-03-25T21:26:56.784Z,85.30
2019-03-25T21:29:26.143Z,86.60
2019-03-25T21:31:55.342Z,86.50
2019-03-25T21:34:24.750Z,86.50
2019-03-25T21:36:54.355Z,86.00
2019-03-25T21:39:23.538Z,87.50
2019-03-25T21:41:54.338Z,87.60
2019-03-25T21:44:23.746Z,86.60
2019-03-25T21:46:52.973Z,85.80
2019-03-25T21:49:22.130Z,85.50
2019-03-25T21:51:51.116Z,85.90
2019-03-25T21:54:20.377Z,85.30
2019-03-25T21:56:49.514Z,86.00
2019-03-25T21:59:18.809Z,85.60
2019-03-25T22:01:47.967Z,85.50
2019-03-25T22:04:17.000Z,85.70
2019-03-25T22:06:46.070Z,86.20
2019-03-25T22:09:15.136Z,85.80
2019-03-25T22:11:44.136Z,85.30
2019-03-25T22:14:13.081Z,85.20
2019-03-25T22:16:42.124Z,86.60
2019-03-25T22:19:11.219Z,86.80
2019-03-25T22:21:40.438Z,86.70
2019-03-25T22:24:09.401Z,88.50
2019-03-25T22:26:38.481Z,88.90
2019-03-25T22:29:07.578Z,89.80
2019-03-25T22:31:36.716Z,89.10
2019-03-25T22:34:05.929Z,89.00
2019-03-25T22:36:35.055Z,89.20
2019-03-25T22:39:05.644Z,89.60
2019-03-25T22:41:35.209Z,89.70
2019-03-25T22:44:05.425Z,89.70
2019-03-25T22:46:34.542Z,90.20
2019-03-25T22:49:04.072Z,89.40
2019-03-25T22:51:33.133Z,89.50
2019-03-25T22:54:02.249Z,89.30
2019-03-25T22:56:31.316Z,90.00
2019-03-25T22:59:00.587Z,90.00
2019-03-25T23:01:29.944Z,89.90
2019-03-25T23:03:58.984Z,90.30
2019-03-25T23:06:28.340Z,90.50
2019-03-25T23:08:57.372Z,90.50
2019-03-25T23:11:27.730Z,90.50
2019-03-25T23:13:56.875Z,90.50
2019-03-25T23:16:26.295Z,90.70
2019-03-25T23:18:55.404Z,90.40
2019-03-25T23:21:24.693Z,90.40
2019-03-25T23:23:53.684Z,90.30
2019-03-25T23:26:22.625Z,90.30
2019-03-25T23:28:51.661Z,90.30
2019-03-25T23:31:20.597Z,90.10
2019-03-25T23:33:52.552Z,90.40
2019-03-25T23:36:20.369Z,90.40
2019-03-25T23:38:49.424Z,90.30
2019-03-25T23:41:18.402Z,90.40
2019-03-25T23:43:47.388Z,90.30
2019-03-25T23:46:16.346Z,90.20
2019-03-25T23:48:45.610Z,90.40
2019-03-25T23:51:14.615Z,90.20
2019-03-25T23:53:43.597Z,90.20
2019-03-25T23:56:12.537Z,90.00
2019-03-25T23:58:41.505Z,89.90
